Hiattville, Kansas
Current Conditions -  °F | °C
As of 10:15 PM on Wednesday 26 Nov 2014 (Local Time) from KPTS Reporting Station
Overcast Overcast  
Wind Chill: 27°   Ceiling: 2600
Heat Index: 36°   Visibility: 10mi
Dew Point: 27°   Wind: 13mph
Humidity: 71%   Direction: 340°NNW
Pressure: 30.36"   Gusts: 20mph
Location:  37.8381°N, 94.721°W
Report Text: KPTS 270415Z AUTO 34011G17KT 10SM OVC026 02/M03 A3036 RMK AO2 T00201027
Loading
Personal Weather Stations






























Interactive Weather Map New forecast layout! Learn more

10-Day Weather Forecast

Advertisements
Track Severe Weather on mobile